createdAt,value
2018-04-30T00:01:08.807Z,18.70
2018-04-30T00:03:37.911Z,18.61
2018-04-30T00:06:06.617Z,18.73
2018-04-30T00:08:34.971Z,18.63
2018-04-30T00:11:03.296Z,18.51
2018-04-30T00:13:31.684Z,18.40
2018-04-30T00:16:00.027Z,18.39
2018-04-30T00:18:28.380Z,18.48
2018-04-30T00:20:56.702Z,18.17
2018-04-30T00:23:25.060Z,18.29
2018-04-30T00:25:53.505Z,18.34
2018-04-30T00:28:21.921Z,18.19
2018-04-30T00:30:50.283Z,18.20
2018-04-30T00:33:18.607Z,18.05
2018-04-30T00:35:46.972Z,18.22
2018-04-30T00:38:15.336Z,18.25
2018-04-30T00:40:43.682Z,18.33
2018-04-30T00:43:12.032Z,18.19
2018-04-30T00:45:41.116Z,18.41
2018-04-30T00:48:09.436Z,18.20
2018-04-30T00:50:37.957Z,18.18
2018-04-30T00:53:06.256Z,18.18
2018-04-30T00:55:34.600Z,18.19
2018-04-30T00:58:03.002Z,18.27
2018-04-30T01:00:31.379Z,18.08
2018-04-30T01:02:59.693Z,18.00
2018-04-30T01:05:28.051Z,17.94
2018-04-30T01:07:57.156Z,18.15
2018-04-30T01:10:26.295Z,18.16
2018-04-30T01:12:54.812Z,18.07
2018-04-30T01:15:23.149Z,18.00
2018-04-30T01:17:51.498Z,18.08
2018-04-30T01:20:20.590Z,18.09
2018-04-30T01:22:48.919Z,18.01
2018-04-30T01:25:17.255Z,18.09
2018-04-30T01:27:45.578Z,18.01
2018-04-30T01:30:13.865Z,17.79
2018-04-30T01:32:42.195Z,17.82
2018-04-30T01:35:10.845Z,17.84
2018-04-30T01:37:39.195Z,17.63
2018-04-30T01:40:07.489Z,17.64
2018-04-30T01:42:35.841Z,17.51
2018-04-30T01:45:04.162Z,17.57
2018-04-30T01:47:32.461Z,17.55
2018-04-30T01:50:01.572Z,17.62
2018-04-30T01:52:29.889Z,17.37
2018-04-30T01:54:58.184Z,17.19
2018-04-30T01:57:27.080Z,17.07
2018-04-30T01:59:55.424Z,17.31
2018-04-30T02:02:23.720Z,17.17
2018-04-30T02:04:52.089Z,17.17
2018-04-30T02:07:20.451Z,17.20
2018-04-30T02:09:48.767Z,17.22
2018-04-30T02:12:17.097Z,17.21
2018-04-30T02:14:45.422Z,17.41
2018-04-30T02:17:13.720Z,17.25
2018-04-30T02:19:42.408Z,17.22
2018-04-30T02:22:11.479Z,17.03
2018-04-30T02:24:39.798Z,17.03
2018-04-30T02:27:08.172Z,16.90
2018-04-30T02:29:37.280Z,16.92
2018-04-30T02:32:05.602Z,17.03
2018-04-30T02:34:33.945Z,17.10
2018-04-30T02:37:02.253Z,17.12
2018-04-30T02:39:31.319Z,17.20
2018-04-30T02:41:59.991Z,17.19
2018-04-30T02:44:28.320Z,17.15
2018-04-30T02:46:56.643Z,17.26
2018-04-30T02:49:25.748Z,17.25
2018-04-30T02:51:54.821Z,17.34
2018-04-30T02:54:23.916Z,17.20
2018-04-30T02:56:53.067Z,17.08
2018-04-30T02:59:21.398Z,17.17
2018-04-30T03:01:49.709Z,16.85
2018-04-30T03:04:18.339Z,17.00
2018-04-30T03:06:46.649Z,16.96
2018-04-30T03:09:15.747Z,16.95
2018-04-30T03:11:44.099Z,17.14
2018-04-30T03:14:13.216Z,17.24
2018-04-30T03:16:42.311Z,16.89
2018-04-30T03:19:11.418Z,17.03
2018-04-30T03:21:39.709Z,17.01
2018-04-30T03:24:08.034Z,17.17
2018-04-30T03:26:36.667Z,17.05
2018-04-30T03:29:05.003Z,16.99
2018-04-30T03:31:33.318Z,17.01
2018-04-30T03:34:02.439Z,17.01
2018-04-30T03:36:30.819Z,17.00
2018-04-30T03:38:59.143Z,17.09
2018-04-30T03:41:27.497Z,17.28
2018-04-30T03:43:55.859Z,17.15
2018-04-30T03:46:24.255Z,17.24
2018-04-30T03:48:53.671Z,17.06
2018-04-30T03:51:22.003Z,16.88
2018-04-30T03:53:50.299Z,16.93
2018-04-30T03:56:18.631Z,16.82
2018-04-30T03:58:47.704Z,17.09
2018-04-30T04:01:33.591Z,17.24
2018-04-30T04:04:19.469Z,17.24
2018-04-30T04:06:55.071Z,17.16
2018-04-30T04:09:23.407Z,17.23
2018-04-30T04:11:51.742Z,17.37
2018-04-30T04:14:20.074Z,17.48
2018-04-30T04:16:48.377Z,17.43
2018-04-30T04:19:16.709Z,17.39
2018-04-30T04:21:45.057Z,17.48
2018-04-30T04:24:13.386Z,17.62
2018-04-30T04:26:41.731Z,17.84
2018-04-30T04:29:10.579Z,17.88
2018-04-30T04:31:38.894Z,17.78
2018-04-30T04:34:07.228Z,17.81
2018-04-30T04:36:35.588Z,17.99
2018-04-30T04:39:03.918Z,18.01
2018-04-30T04:41:32.291Z,18.15
2018-04-30T04:44:00.651Z,18.06
2018-04-30T04:46:28.972Z,17.98
2018-04-30T04:48:57.293Z,17.95
2018-04-30T04:51:25.946Z,18.12
2018-04-30T04:53:54.259Z,18.19
2018-04-30T04:56:23.354Z,18.10
2018-04-30T04:58:52.455Z,18.00
2018-04-30T05:01:21.540Z,18.11
2018-04-30T05:03:50.615Z,18.45
2018-04-30T05:06:18.938Z,18.18
2018-04-30T05:08:48.002Z,18.27
2018-04-30T05:11:16.310Z,18.26
2018-04-30T05:13:45.884Z,18.24
2018-04-30T05:16:14.243Z,18.21
2018-04-30T05:18:42.618Z,18.27
2018-04-30T05:21:10.979Z,18.01
2018-04-30T05:23:39.326Z,17.79
2018-04-30T05:26:08.435Z,17.95
2018-04-30T05:28:36.795Z,17.99
2018-04-30T05:31:05.920Z,18.20
2018-04-30T05:33:34.224Z,18.05
2018-04-30T05:36:02.611Z,18.22
2018-04-30T05:38:30.919Z,18.12
2018-04-30T05:41:00.019Z,18.20
2018-04-30T05:43:28.383Z,17.97
2018-04-30T05:45:56.718Z,18.13
2018-04-30T05:48:25.035Z,18.54
2018-04-30T05:50:53.396Z,18.86
2018-04-30T05:53:21.740Z,19.04
2018-04-30T05:55:50.075Z,19.54
2018-04-30T05:58:18.982Z,19.43
2018-04-30T06:00:47.310Z,19.52
2018-04-30T06:03:15.633Z,19.28
2018-04-30T06:05:43.967Z,19.10
2018-04-30T06:08:12.300Z,19.17
2018-04-30T06:10:41.395Z,19.24
2018-04-30T06:13:09.739Z,19.35
2018-04-30T06:15:38.044Z,19.32
2018-04-30T06:18:06.350Z,19.59
2018-04-30T06:20:35.049Z,19.68
2018-04-30T06:23:03.359Z,19.61
2018-04-30T06:25:31.680Z,19.56
2018-04-30T06:28:00.059Z,19.55
2018-04-30T06:30:29.152Z,19.35
2018-04-30T06:32:58.212Z,19.42
2018-04-30T06:35:26.580Z,19.80
2018-04-30T06:37:54.919Z,20.03
2018-04-30T06:40:23.246Z,20.13
2018-04-30T06:42:52.079Z,20.55
2018-04-30T06:45:20.401Z,20.69
2018-04-30T06:47:48.728Z,20.69
2018-04-30T06:50:17.843Z,20.45
2018-04-30T06:52:46.159Z,20.60
2018-04-30T06:55:14.498Z,20.45
2018-04-30T06:57:42.864Z,20.23
2018-04-30T07:00:12.060Z,20.31
2018-04-30T07:02:40.348Z,20.53
2018-04-30T07:05:09.019Z,20.13
2018-04-30T07:07:38.152Z,20.02
2018-04-30T07:10:06.455Z,20.03
2018-04-30T07:12:34.785Z,19.92
2018-04-30T07:15:03.115Z,20.10
2018-04-30T07:17:31.442Z,19.74
2018-04-30T07:19:59.862Z,19.43
2018-04-30T07:22:28.171Z,19.61
2018-04-30T07:24:56.477Z,19.75
2018-04-30T07:27:25.610Z,19.85
2018-04-30T07:29:53.938Z,19.90
2018-04-30T07:32:23.025Z,19.72
2018-04-30T07:34:52.147Z,19.60
2018-04-30T07:37:20.615Z,19.62
2018-04-30T07:39:49.684Z,19.49
2018-04-30T07:42:18.049Z,19.50
2018-04-30T07:44:46.357Z,19.49
2018-04-30T07:47:14.678Z,19.79
2018-04-30T07:49:43.513Z,19.90
2018-04-30T07:52:11.903Z,19.89
2018-04-30T07:54:41.051Z,19.92
2018-04-30T07:57:09.412Z,20.33
2018-04-30T07:59:37.730Z,20.20
2018-04-30T08:02:06.077Z,20.22
2018-04-30T08:04:34.464Z,20.24
2018-04-30T08:07:02.771Z,20.06
2018-04-30T08:09:31.863Z,20.45
2018-04-30T08:12:00.557Z,20.88
2018-04-30T08:14:28.870Z,20.65
2018-04-30T08:16:57.960Z,20.38
2018-04-30T08:19:27.078Z,20.45
2018-04-30T08:21:55.424Z,20.46
2018-04-30T08:24:23.732Z,20.44
2018-04-30T08:26:52.115Z,20.37
2018-04-30T08:29:21.191Z,20.51
2018-04-30T08:31:50.275Z,20.76
2018-04-30T08:34:19.668Z,20.44
2018-04-30T08:36:47.943Z,20.98
2018-04-30T08:39:16.734Z,21.48
2018-04-30T08:41:45.076Z,21.60
2018-04-30T08:44:13.427Z,21.42
2018-04-30T08:46:41.740Z,21.86
2018-04-30T08:49:10.100Z,21.71
2018-04-30T08:51:38.405Z,21.39
2018-04-30T08:54:06.731Z,21.67
2018-04-30T08:56:35.398Z,21.70
2018-04-30T08:59:04.563Z,21.43
2018-04-30T09:01:32.939Z,22.07
2018-04-30T09:04:02.027Z,22.56
2018-04-30T09:06:30.452Z,22.50
2018-04-30T09:08:58.807Z,22.57
2018-04-30T09:11:27.165Z,23.47
2018-04-30T09:13:55.516Z,23.70
2018-04-30T09:16:23.853Z,24.52
2018-04-30T09:18:52.748Z,22.86
2018-04-30T09:21:21.104Z,23.05
2018-04-30T09:23:49.509Z,21.96
2018-04-30T09:26:17.851Z,21.80
2018-04-30T09:28:46.155Z,21.95
2018-04-30T09:31:14.488Z,22.07
2018-04-30T09:33:42.835Z,21.61
2018-04-30T09:36:11.158Z,21.95
2018-04-30T09:38:39.512Z,22.00
2018-04-30T09:41:08.295Z,22.29
2018-04-30T09:43:36.600Z,22.29
2018-04-30T09:46:05.003Z,22.29
2018-04-30T09:48:33.379Z,22.29
2018-04-30T09:51:01.736Z,22.16
2018-04-30T09:53:30.071Z,21.37
2018-04-30T09:55:59.210Z,21.66
2018-04-30T09:58:27.515Z,22.19
2018-04-30T10:00:55.851Z,22.54
2018-04-30T10:03:24.500Z,22.53
2018-04-30T10:05:52.806Z,22.51
2018-04-30T10:08:21.875Z,22.31
2018-04-30T10:10:50.205Z,21.89
2018-04-30T10:13:18.508Z,21.53
2018-04-30T10:15:46.856Z,21.12
2018-04-30T10:18:15.220Z,21.22
2018-04-30T10:20:43.565Z,21.17
2018-04-30T10:23:11.897Z,20.42
2018-04-30T10:25:40.751Z,20.18
2018-04-30T10:28:09.068Z,20.22
2018-04-30T10:30:37.408Z,20.02
2018-04-30T10:33:06.542Z,20.09
2018-04-30T10:35:34.866Z,20.20
2018-04-30T10:38:03.263Z,20.12
2018-04-30T10:40:31.576Z,20.09
2018-04-30T10:42:59.902Z,19.99
2018-04-30T10:45:28.203Z,20.12
2018-04-30T10:47:56.848Z,19.94
2018-04-30T10:50:25.151Z,19.80
2018-04-30T10:52:53.505Z,19.46
2018-04-30T10:55:21.912Z,19.39
2018-04-30T10:57:50.283Z,19.44
2018-04-30T11:00:18.634Z,19.42
2018-04-30T11:02:46.987Z,19.14
2018-04-30T11:05:15.313Z,19.21
2018-04-30T11:07:43.647Z,19.02
2018-04-30T11:10:12.403Z,18.88
2018-04-30T11:12:41.502Z,18.78
2018-04-30T11:15:10.598Z,18.91
2018-04-30T11:17:39.735Z,19.05
2018-04-30T11:20:08.072Z,18.88
2018-04-30T11:22:37.167Z,18.96
2018-04-30T11:25:06.293Z,18.93
2018-04-30T11:27:34.695Z,19.05
2018-04-30T11:30:03.739Z,18.86
2018-04-30T11:32:33.266Z,18.98
2018-04-30T11:35:01.596Z,19.01
2018-04-30T11:37:29.978Z,19.04
2018-04-30T11:39:59.186Z,18.60
2018-04-30T11:42:27.411Z,18.77
2018-04-30T11:44:55.723Z,18.66
2018-04-30T11:47:24.064Z,18.72
2018-04-30T11:49:52.420Z,18.08
2018-04-30T11:52:20.743Z,18.23
2018-04-30T11:54:49.242Z,18.11
2018-04-30T11:57:17.587Z,17.98
2018-04-30T11:59:46.133Z,18.27
2018-04-30T12:02:14.524Z,18.77
2018-04-30T12:04:42.848Z,18.65
2018-04-30T12:07:11.205Z,18.41
2018-04-30T12:09:39.563Z,18.21
2018-04-30T12:12:07.899Z,18.07
2018-04-30T12:14:36.219Z,18.21
2018-04-30T12:17:05.101Z,17.91
2018-04-30T12:19:33.442Z,17.68
2018-04-30T12:22:01.789Z,18.09
2018-04-30T12:24:30.882Z,18.38
2018-04-30T12:26:59.222Z,17.96
2018-04-30T12:29:27.746Z,18.07
2018-04-30T12:31:56.089Z,17.72
2018-04-30T12:34:24.431Z,17.87
2018-04-30T12:36:52.751Z,18.02
2018-04-30T12:39:21.426Z,18.03
2018-04-30T12:41:49.772Z,17.52
2018-04-30T12:44:18.101Z,17.43
2018-04-30T12:46:46.471Z,17.56
2018-04-30T12:49:14.790Z,17.30
2018-04-30T12:51:43.105Z,16.70
2018-04-30T12:54:12.219Z,16.58
2018-04-30T12:56:40.536Z,16.81
2018-04-30T12:59:08.868Z,16.96
2018-04-30T13:01:37.759Z,16.87
2018-04-30T13:04:06.068Z,17.15
2018-04-30T13:06:34.430Z,17.27
2018-04-30T13:09:03.020Z,17.98
2018-04-30T13:11:31.307Z,18.91
2018-04-30T13:13:59.647Z,18.93
2018-04-30T13:16:28.006Z,18.30
2018-04-30T13:18:56.324Z,18.00
2018-04-30T13:21:24.650Z,18.14
2018-04-30T13:23:53.101Z,18.38
2018-04-30T13:26:21.460Z,18.31
2018-04-30T13:28:50.568Z,18.30
2018-04-30T13:31:18.918Z,18.60
2018-04-30T13:33:47.248Z,19.12
2018-04-30T13:36:15.578Z,19.66
2018-04-30T13:38:44.691Z,19.99
2018-04-30T13:41:13.791Z,19.12
2018-04-30T13:43:43.088Z,19.59
2018-04-30T13:46:11.863Z,19.38
2018-04-30T13:48:40.172Z,19.41
2018-04-30T13:51:08.483Z,19.40
2018-04-30T13:53:37.591Z,19.16
2018-04-30T13:56:05.990Z,19.62
2018-04-30T13:58:34.332Z,19.58
2018-04-30T14:01:02.660Z,20.38
2018-04-30T14:03:31.740Z,21.06
2018-04-30T14:06:00.050Z,21.06
2018-04-30T14:08:29.026Z,20.47
2018-04-30T14:10:57.322Z,20.84
2018-04-30T14:13:25.639Z,20.53
2018-04-30T14:15:54.035Z,20.78
2018-04-30T14:18:22.316Z,20.50
2018-04-30T14:20:50.636Z,20.16
2018-04-30T14:23:18.976Z,19.89
2018-04-30T14:25:47.301Z,19.67
2018-04-30T14:28:15.861Z,19.32
2018-04-30T14:30:45.569Z,19.74
2018-04-30T14:33:13.872Z,19.45
2018-04-30T14:35:42.205Z,19.89
2018-04-30T14:38:10.539Z,20.06
2018-04-30T14:40:38.948Z,20.12
2018-04-30T14:43:07.240Z,20.48
2018-04-30T14:45:35.911Z,20.30
2018-04-30T14:48:04.241Z,20.10
2018-04-30T14:50:32.559Z,20.11
2018-04-30T14:53:01.278Z,19.87
2018-04-30T14:55:29.595Z,20.43
2018-04-30T14:57:57.906Z,19.83
2018-04-30T15:00:26.269Z,19.95
2018-04-30T15:02:54.590Z,19.61
2018-04-30T15:05:22.915Z,19.84
2018-04-30T15:07:51.285Z,20.23
2018-04-30T15:10:19.596Z,19.94
2018-04-30T15:12:47.958Z,19.86
2018-04-30T15:15:16.792Z,19.77
2018-04-30T15:17:45.120Z,19.93
2018-04-30T15:20:14.215Z,19.85
2018-04-30T15:22:42.566Z,20.04
2018-04-30T15:25:10.884Z,19.96
2018-04-30T15:27:39.192Z,19.95
2018-04-30T15:30:07.602Z,19.81
2018-04-30T15:32:36.657Z,20.06
2018-04-30T15:35:04.979Z,19.78
2018-04-30T15:37:33.400Z,19.79
2018-04-30T15:40:01.709Z,19.72
2018-04-30T15:42:30.824Z,20.25
2018-04-30T15:44:59.927Z,20.29
2018-04-30T15:47:29.046Z,20.52
2018-04-30T15:49:57.377Z,20.79
2018-04-30T15:52:25.732Z,20.65
2018-04-30T15:54:54.032Z,20.06
2018-04-30T15:57:22.349Z,20.08
2018-04-30T15:59:50.781Z,19.72
2018-04-30T16:02:19.086Z,19.82
2018-04-30T16:04:48.163Z,20.01
2018-04-30T16:07:16.523Z,20.39
2018-04-30T16:09:44.916Z,20.26
2018-04-30T16:12:13.266Z,19.86
2018-04-30T16:14:41.632Z,19.89
2018-04-30T16:17:09.956Z,20.05
2018-04-30T16:19:38.252Z,19.66
2018-04-30T16:22:07.755Z,19.54
2018-04-30T16:24:36.844Z,19.42
2018-04-30T16:27:05.942Z,19.50
2018-04-30T16:29:35.038Z,19.56
2018-04-30T16:32:04.168Z,19.45
2018-04-30T16:34:32.493Z,19.68
2018-04-30T16:37:00.846Z,19.94
2018-04-30T16:39:29.177Z,20.01
2018-04-30T16:41:58.240Z,19.80
2018-04-30T16:44:26.761Z,19.62
2018-04-30T16:46:55.847Z,19.43
2018-04-30T16:49:24.934Z,19.34
2018-04-30T16:51:53.423Z,19.52
2018-04-30T16:54:22.544Z,19.47
2018-04-30T16:56:50.858Z,19.48
2018-04-30T16:59:19.226Z,19.69
2018-04-30T17:01:47.546Z,19.78
2018-04-30T17:04:15.932Z,19.74
2018-04-30T17:06:45.029Z,19.87
2018-04-30T17:09:13.396Z,19.61
2018-04-30T17:11:42.519Z,19.59
2018-04-30T17:14:11.650Z,19.72
2018-04-30T17:16:40.020Z,19.82
2018-04-30T17:19:08.351Z,19.65
2018-04-30T17:21:36.729Z,19.55
2018-04-30T17:24:05.068Z,19.42
2018-04-30T17:26:33.383Z,19.44
2018-04-30T17:29:01.909Z,19.53
2018-04-30T17:31:30.212Z,19.40
2018-04-30T17:33:58.547Z,19.35
2018-04-30T17:36:27.697Z,19.20
2018-04-30T17:38:56.025Z,19.22
2018-04-30T17:41:25.121Z,19.38
2018-04-30T17:43:54.233Z,19.13
2018-04-30T17:46:22.568Z,19.18
2018-04-30T17:48:50.890Z,19.19
2018-04-30T17:51:19.953Z,19.01
2018-04-30T17:53:48.295Z,19.23
2018-04-30T17:56:16.615Z,19.01
2018-04-30T17:58:45.788Z,18.77
2018-04-30T18:01:14.081Z,18.71
2018-04-30T18:03:42.393Z,19.04
2018-04-30T18:06:10.810Z,19.18
2018-04-30T18:08:39.132Z,19.12
2018-04-30T18:11:07.460Z,19.39
2018-04-30T18:13:36.132Z,19.42
2018-04-30T18:16:04.469Z,19.39
2018-04-30T18:18:33.553Z,19.60
2018-04-30T18:21:01.903Z,19.44
2018-04-30T18:23:30.256Z,19.21
2018-04-30T18:25:58.583Z,19.29
2018-04-30T18:28:26.918Z,19.17
2018-04-30T18:30:55.306Z,19.26
2018-04-30T18:33:23.721Z,19.08
2018-04-30T18:35:52.836Z,19.04
2018-04-30T18:38:21.951Z,19.10
2018-04-30T18:40:51.084Z,18.99
2018-04-30T18:43:20.202Z,19.05
2018-04-30T18:45:48.541Z,18.93
2018-04-30T18:48:16.873Z,18.80
2018-04-30T18:50:45.212Z,18.71
2018-04-30T18:53:13.514Z,18.31
2018-04-30T18:55:41.856Z,18.33
2018-04-30T18:58:10.792Z,17.87
2018-04-30T19:00:39.139Z,17.93
2018-04-30T19:03:07.466Z,17.95
2018-04-30T19:05:36.589Z,18.06
2018-04-30T19:08:05.022Z,18.07
2018-04-30T19:10:33.265Z,17.94
2018-04-30T19:13:02.571Z,18.07
2018-04-30T19:15:30.892Z,18.10
2018-04-30T19:17:59.193Z,17.93
2018-04-30T19:20:27.891Z,18.01
2018-04-30T19:22:56.203Z,17.89
2018-04-30T19:25:24.551Z,18.05
2018-04-30T19:27:52.936Z,18.18
2018-04-30T19:30:21.253Z,18.20
2018-04-30T19:32:49.589Z,17.86
2018-04-30T19:35:17.938Z,17.92
2018-04-30T19:37:47.055Z,17.96
2018-04-30T19:40:15.401Z,17.87
2018-04-30T19:42:44.227Z,17.98
2018-04-30T19:45:12.568Z,18.01
2018-04-30T19:47:40.866Z,17.96
2018-04-30T19:50:09.977Z,17.96
2018-04-30T19:52:38.341Z,17.94
2018-04-30T19:55:07.569Z,17.87
2018-04-30T19:57:35.900Z,17.85
2018-04-30T20:00:04.228Z,17.78
2018-04-30T20:02:32.574Z,17.71
2018-04-30T20:05:01.227Z,17.32
2018-04-30T20:07:29.591Z,17.02
2018-04-30T20:09:57.889Z,16.98
2018-04-30T20:12:26.406Z,16.84
2018-04-30T20:14:54.746Z,16.46
2018-04-30T20:17:23.075Z,16.61
2018-04-30T20:19:51.417Z,16.65
2018-04-30T20:22:19.711Z,16.49
2018-04-30T20:24:48.789Z,16.34
2018-04-30T20:27:17.603Z,16.34
2018-04-30T20:29:46.793Z,16.49
2018-04-30T20:32:15.864Z,16.46
2018-04-30T20:34:44.226Z,16.37
2018-04-30T20:37:12.550Z,16.41
2018-04-30T20:39:40.883Z,16.22
2018-04-30T20:42:09.226Z,16.35
2018-04-30T20:44:37.592Z,16.27
2018-04-30T20:47:06.157Z,16.37
2018-04-30T20:49:35.608Z,16.23
2018-04-30T20:52:03.935Z,16.05
2018-04-30T20:54:32.273Z,15.99
2018-04-30T20:57:00.640Z,16.14
2018-04-30T20:59:28.968Z,16.09
2018-04-30T21:01:57.283Z,16.11
2018-04-30T21:04:25.648Z,16.09
2018-04-30T21:06:54.739Z,15.93
2018-04-30T21:09:23.068Z,15.81
2018-04-30T21:11:51.616Z,15.75
2018-04-30T21:14:19.963Z,15.92
2018-04-30T21:16:48.316Z,15.82
2018-04-30T21:19:16.683Z,15.69
2018-04-30T21:21:45.752Z,15.73
2018-04-30T21:24:14.067Z,15.67
2018-04-30T21:26:42.415Z,15.77
2018-04-30T21:29:10.744Z,15.84
2018-04-30T21:31:39.106Z,15.62
2018-04-30T21:34:07.844Z,15.67
2018-04-30T21:36:36.190Z,15.64
2018-04-30T21:39:04.543Z,15.54
2018-04-30T21:41:32.928Z,15.32
2018-04-30T21:44:01.316Z,15.46
2018-04-30T21:46:29.676Z,15.37
2018-04-30T21:48:59.036Z,15.23
2018-04-30T21:51:27.386Z,15.13
2018-04-30T21:53:55.732Z,14.96
2018-04-30T21:56:24.298Z,15.12
2018-04-30T21:58:52.656Z,15.08
2018-04-30T22:01:21.759Z,15.10
2018-04-30T22:03:50.106Z,15.19
2018-04-30T22:06:19.206Z,14.80
2018-04-30T22:08:47.541Z,14.64
2018-04-30T22:11:15.883Z,14.56
2018-04-30T22:13:44.976Z,14.67
2018-04-30T22:16:13.320Z,14.52
2018-04-30T22:18:42.108Z,14.47
2018-04-30T22:21:10.442Z,14.46
2018-04-30T22:23:38.783Z,14.41
2018-04-30T22:26:07.923Z,14.44
2018-04-30T22:28:36.270Z,14.41
2018-04-30T22:31:04.627Z,14.30
2018-04-30T22:33:32.964Z,14.41
2018-04-30T22:36:01.262Z,14.47
2018-04-30T22:38:29.562Z,14.45
2018-04-30T22:40:57.967Z,14.62
2018-04-30T22:43:27.066Z,14.52
2018-04-30T22:45:55.371Z,14.52
2018-04-30T22:48:23.714Z,14.14
2018-04-30T22:50:53.300Z,14.17
2018-04-30T22:53:21.637Z,14.22
2018-04-30T22:55:50.016Z,14.29
2018-04-30T22:58:18.321Z,14.36
2018-04-30T23:00:46.647Z,14.44
2018-04-30T23:03:15.339Z,14.30
2018-04-30T23:05:43.673Z,14.24
2018-04-30T23:08:12.065Z,14.36
2018-04-30T23:10:40.387Z,14.36
2018-04-30T23:13:08.716Z,14.27
2018-04-30T23:15:37.091Z,14.24
2018-04-30T23:18:05.435Z,14.32
2018-04-30T23:20:33.767Z,14.26
2018-04-30T23:23:02.850Z,14.32
2018-04-30T23:25:31.559Z,14.12
2018-04-30T23:28:00.647Z,14.06
2018-04-30T23:30:28.979Z,14.04
2018-04-30T23:32:57.316Z,13.87
2018-04-30T23:35:26.422Z,14.06
2018-04-30T23:37:54.744Z,13.95
2018-04-30T23:40:23.061Z,13.85
2018-04-30T23:42:52.128Z,13.89
2018-04-30T23:45:20.438Z,13.98
2018-04-30T23:47:48.879Z,14.09
2018-04-30T23:50:17.176Z,14.04
2018-04-30T23:52:45.519Z,14.01
2018-04-30T23:55:13.844Z,14.18
2018-04-30T23:57:42.924Z,14.03
